createdAt,value
2018-05-16T00:02:09.737Z,13.30
2018-05-16T00:04:37.245Z,13.30
2018-05-16T00:07:05.485Z,13.40
2018-05-16T00:09:32.956Z,13.30
2018-05-16T00:12:00.461Z,13.30
2018-05-16T00:14:27.941Z,13.20
2018-05-16T00:16:55.438Z,13.30
2018-05-16T00:19:23.692Z,13.30
2018-05-16T00:21:51.198Z,13.30
2018-05-16T00:24:18.704Z,13.30
2018-05-16T00:26:46.202Z,13.40
2018-05-16T00:29:14.473Z,13.40
2018-05-16T00:31:42.741Z,13.40
2018-05-16T00:34:10.989Z,13.40
2018-05-16T00:36:38.492Z,13.40
2018-05-16T00:39:06.737Z,13.50
2018-05-16T00:41:34.233Z,13.40
2018-05-16T00:44:01.708Z,13.40
2018-05-16T00:46:29.213Z,13.40
2018-05-16T00:48:56.689Z,13.50
2018-05-16T00:51:31.664Z,13.40
2018-05-16T00:53:59.142Z,13.30
2018-05-16T00:56:26.653Z,13.40
2018-05-16T00:58:54.166Z,13.30
2018-05-16T01:01:21.795Z,13.30
2018-05-16T01:03:49.300Z,13.30
2018-05-16T01:06:16.788Z,13.30
2018-05-16T01:08:45.069Z,13.20
2018-05-16T01:11:12.547Z,13.20
2018-05-16T01:13:40.021Z,13.20
2018-05-16T01:16:07.531Z,13.20
2018-05-16T01:18:35.805Z,12.90
2018-05-16T01:21:04.068Z,12.80
2018-05-16T01:23:31.544Z,12.80
2018-05-16T01:25:59.814Z,12.60
2018-05-16T01:28:28.087Z,12.60
2018-05-16T01:30:56.369Z,12.50
2018-05-16T01:33:24.614Z,12.60
2018-05-16T01:35:52.097Z,12.50
2018-05-16T01:38:20.380Z,12.70
2018-05-16T01:40:48.638Z,12.70
2018-05-16T01:43:16.113Z,12.70
2018-05-16T01:45:44.388Z,12.70
2018-05-16T01:48:12.628Z,12.90
2018-05-16T01:50:40.133Z,12.90
2018-05-16T01:53:08.373Z,13.00
2018-05-16T01:55:35.894Z,13.00
2018-05-16T01:58:03.377Z,13.10
2018-05-16T02:00:30.876Z,13.10
2018-05-16T02:02:59.116Z,13.20
2018-05-16T02:05:26.619Z,13.20
2018-05-16T02:07:54.885Z,13.30
2018-05-16T02:10:23.157Z,13.30
2018-05-16T02:12:51.400Z,13.40
2018-05-16T02:15:18.925Z,13.40
2018-05-16T02:17:46.401Z,13.50
2018-05-16T02:20:13.879Z,13.50
2018-05-16T02:22:41.380Z,13.40
2018-05-16T02:25:09.628Z,13.50
2018-05-16T02:27:37.136Z,13.50
2018-05-16T02:30:04.617Z,13.40
2018-05-16T02:32:32.114Z,13.10
2018-05-16T02:34:59.624Z,13.00
2018-05-16T02:37:27.152Z,12.90
2018-05-16T02:39:55.385Z,12.90
2018-05-16T02:42:22.893Z,12.90
2018-05-16T02:44:50.394Z,12.90
2018-05-16T02:47:17.877Z,12.80
2018-05-16T02:49:45.483Z,12.70
2018-05-16T02:52:12.983Z,12.70
2018-05-16T02:54:40.461Z,12.80
2018-05-16T02:57:08.743Z,12.90
2018-05-16T02:59:36.986Z,13.00
2018-05-16T03:02:04.461Z,13.00
2018-05-16T03:04:31.968Z,13.10
2018-05-16T03:06:59.451Z,13.10
2018-05-16T03:09:26.958Z,13.10
2018-05-16T03:11:54.458Z,13.10
2018-05-16T03:14:21.958Z,13.10
2018-05-16T03:16:49.465Z,13.20
2018-05-16T03:19:16.945Z,13.30
2018-05-16T03:21:44.444Z,13.30
2018-05-16T03:24:12.717Z,13.10
2018-05-16T03:26:40.962Z,13.10
2018-05-16T03:29:08.469Z,13.10
2018-05-16T03:31:36.750Z,13.20
2018-05-16T03:34:04.229Z,13.20
2018-05-16T03:36:31.709Z,13.20
2018-05-16T03:38:59.218Z,13.20
2018-05-16T03:41:27.457Z,13.20
2018-05-16T03:43:54.987Z,13.10
2018-05-16T03:46:22.463Z,13.20
2018-05-16T03:48:49.965Z,13.20
2018-05-16T03:51:18.228Z,13.30
2018-05-16T03:53:46.505Z,13.40
2018-05-16T03:56:13.980Z,13.40
2018-05-16T03:58:54.191Z,13.60
2018-05-16T04:01:33.509Z,13.60
2018-05-16T04:04:12.969Z,13.40
2018-05-16T04:06:40.451Z,13.30
2018-05-16T04:09:07.960Z,13.30
2018-05-16T04:11:35.434Z,13.30
2018-05-16T04:14:02.942Z,13.30
2018-05-16T04:16:31.213Z,13.60
2018-05-16T04:18:59.460Z,13.50
2018-05-16T04:21:26.966Z,13.50
2018-05-16T04:23:54.461Z,13.50
2018-05-16T04:26:21.941Z,13.50
2018-05-16T04:28:49.482Z,13.50
2018-05-16T04:31:17.019Z,13.70
2018-05-16T04:33:44.521Z,13.90
2018-05-16T04:36:12.001Z,13.80
2018-05-16T04:38:40.268Z,13.90
2018-05-16T04:41:08.512Z,13.80
2018-05-16T04:43:36.021Z,13.70
2018-05-16T04:46:04.261Z,13.80
2018-05-16T04:48:31.738Z,13.80
2018-05-16T04:51:00.009Z,13.80
2018-05-16T04:53:27.512Z,13.80
2018-05-16T04:55:54.988Z,13.80
2018-05-16T04:58:22.491Z,13.80
2018-05-16T05:00:50.849Z,13.90
2018-05-16T05:03:19.025Z,13.90
2018-05-16T05:05:46.528Z,13.90
2018-05-16T05:08:14.030Z,14.00
2018-05-16T05:10:41.514Z,13.90
2018-05-16T05:13:09.807Z,14.00
2018-05-16T05:15:38.072Z,13.90
2018-05-16T05:18:06.316Z,14.10
2018-05-16T05:20:33.821Z,14.10
2018-05-16T05:23:02.092Z,14.00
2018-05-16T05:25:30.336Z,14.10
2018-05-16T05:27:57.837Z,14.00
2018-05-16T05:30:25.408Z,14.10
2018-05-16T05:32:52.836Z,14.20
2018-05-16T05:35:21.083Z,14.00
2018-05-16T05:37:48.573Z,14.00
2018-05-16T05:40:16.836Z,13.90
2018-05-16T05:42:44.314Z,13.90
2018-05-16T05:45:12.581Z,14.00
2018-05-16T05:47:40.825Z,14.20
2018-05-16T05:50:08.324Z,14.20
2018-05-16T05:52:36.568Z,14.50
2018-05-16T05:55:04.073Z,14.50
2018-05-16T05:57:31.553Z,14.40
2018-05-16T05:59:59.152Z,14.40
2018-05-16T06:02:27.320Z,14.40
2018-05-16T06:04:54.796Z,14.40
2018-05-16T06:07:23.071Z,14.60
2018-05-16T06:09:51.341Z,14.70
2018-05-16T06:12:18.822Z,14.70
2018-05-16T06:14:47.096Z,14.80
2018-05-16T06:17:15.338Z,14.90
2018-05-16T06:19:42.883Z,14.90
2018-05-16T06:22:10.345Z,15.20
2018-05-16T06:24:37.821Z,15.80
2018-05-16T06:27:05.529Z,16.60
2018-05-16T06:29:32.809Z,17.10
2018-05-16T06:32:00.307Z,17.90
2018-05-16T06:34:28.554Z,18.90
2018-05-16T06:36:56.056Z,18.80
2018-05-16T06:39:24.297Z,19.50
2018-05-16T06:41:51.902Z,19.50
2018-05-16T06:44:21.032Z,19.90
2018-05-16T06:46:48.515Z,19.60
2018-05-16T06:49:16.025Z,19.30
2018-05-16T06:51:43.496Z,19.50
2018-05-16T06:54:11.005Z,19.40
2018-05-16T06:56:38.478Z,19.30
2018-05-16T06:59:06.750Z,19.10
2018-05-16T07:01:35.001Z,18.90
2018-05-16T07:04:02.539Z,18.90
2018-05-16T07:06:30.008Z,19.10
2018-05-16T07:08:57.509Z,19.10
2018-05-16T07:11:25.765Z,19.20
2018-05-16T07:13:53.280Z,19.20
2018-05-16T07:16:20.765Z,19.20
2018-05-16T07:18:48.252Z,18.90
2018-05-16T07:21:16.519Z,19.00
2018-05-16T07:23:43.997Z,19.00
2018-05-16T07:26:12.265Z,18.90
2018-05-16T07:28:40.507Z,18.80
2018-05-16T07:31:08.006Z,18.80
2018-05-16T07:33:36.244Z,18.90
2018-05-16T07:36:03.766Z,18.90
2018-05-16T07:38:31.250Z,19.10
2018-05-16T07:40:58.792Z,19.50
2018-05-16T07:43:26.245Z,19.50
2018-05-16T07:45:53.730Z,19.20
2018-05-16T07:48:21.243Z,19.00
2018-05-16T07:50:48.715Z,19.10
2018-05-16T07:53:16.217Z,19.00
2018-05-16T07:58:17.779Z,19.00
2018-05-16T08:00:45.297Z,19.10
2018-05-16T08:03:12.857Z,19.00
2018-05-16T08:05:40.264Z,19.10
2018-05-16T08:08:07.763Z,19.10
2018-05-16T08:10:35.240Z,19.40
2018-05-16T08:13:02.749Z,19.50
2018-05-16T08:15:30.225Z,19.50
2018-05-16T08:17:58.499Z,19.90
2018-05-16T08:20:26.749Z,19.90
2018-05-16T08:22:54.253Z,19.90
2018-05-16T08:25:21.734Z,20.00
2018-05-16T08:27:49.237Z,20.10
2018-05-16T08:30:16.715Z,20.00
2018-05-16T08:32:45.016Z,19.90
2018-05-16T08:35:12.497Z,19.80
2018-05-16T08:37:39.976Z,20.00
2018-05-16T08:40:07.484Z,20.00
2018-05-16T08:42:35.016Z,20.00
2018-05-16T08:45:02.487Z,20.00
2018-05-16T08:47:30.728Z,19.70
2018-05-16T08:49:58.201Z,19.70
2018-05-16T08:52:25.705Z,19.90
2018-05-16T08:54:53.184Z,20.00
2018-05-16T08:57:20.690Z,19.80
2018-05-16T08:59:48.933Z,20.00
2018-05-16T09:02:16.436Z,20.00
2018-05-16T09:04:43.910Z,20.10
2018-05-16T09:07:11.414Z,20.00
2018-05-16T09:09:38.892Z,20.00
2018-05-16T09:12:07.160Z,20.60
2018-05-16T09:14:34.640Z,20.60
2018-05-16T09:17:02.906Z,20.10
2018-05-16T09:19:31.151Z,20.20
2018-05-16T09:21:58.661Z,20.20
2018-05-16T09:24:26.159Z,20.20
2018-05-16T09:26:53.657Z,20.20
2018-05-16T09:29:21.900Z,20.30
2018-05-16T09:31:49.401Z,20.30
2018-05-16T09:34:17.641Z,20.50
2018-05-16T09:36:45.150Z,20.50
2018-05-16T09:39:12.648Z,20.50
2018-05-16T09:41:40.135Z,20.50
2018-05-16T09:44:08.406Z,20.30
2018-05-16T09:46:35.885Z,20.30
2018-05-16T09:49:04.163Z,19.90
2018-05-16T09:51:32.467Z,19.90
2018-05-16T09:53:59.888Z,19.90
2018-05-16T09:56:28.156Z,19.80
2018-05-16T09:58:56.440Z,19.70
2018-05-16T10:01:23.924Z,19.60
2018-05-16T10:03:51.457Z,19.50
2018-05-16T10:06:19.737Z,19.20
2018-05-16T10:08:47.980Z,19.20
2018-05-16T10:11:15.482Z,19.20
2018-05-16T10:13:42.990Z,19.10
2018-05-16T10:16:10.485Z,19.00
2018-05-16T10:18:38.725Z,19.20
2018-05-16T10:21:06.230Z,19.10
2018-05-16T10:23:34.505Z,19.20
2018-05-16T10:26:02.749Z,19.20
2018-05-16T10:28:30.225Z,19.20
2018-05-16T10:30:58.504Z,19.50
2018-05-16T10:33:26.757Z,19.60
2018-05-16T10:35:54.257Z,19.60
2018-05-16T10:38:21.804Z,19.90
2018-05-16T10:40:49.250Z,20.00
2018-05-16T10:43:16.722Z,20.00
2018-05-16T10:45:44.989Z,20.10
2018-05-16T10:48:13.233Z,20.10
2018-05-16T10:50:40.734Z,20.10
2018-05-16T10:53:08.981Z,20.30
2018-05-16T10:55:36.478Z,20.30
2018-05-16T10:58:03.959Z,20.20
2018-05-16T11:00:31.459Z,20.10
2018-05-16T11:02:58.963Z,20.30
2018-05-16T11:05:26.461Z,20.40
2018-05-16T11:07:53.970Z,20.60
2018-05-16T11:10:21.475Z,20.70
2018-05-16T11:12:48.956Z,20.80
2018-05-16T11:15:16.459Z,20.80
2018-05-16T11:17:43.937Z,21.00
2018-05-16T11:20:11.436Z,21.00
2018-05-16T11:22:39.710Z,20.60
2018-05-16T11:25:07.189Z,20.60
2018-05-16T11:27:36.344Z,20.40
2018-05-16T11:30:03.826Z,20.40
2018-05-16T11:32:31.335Z,20.20
2018-05-16T11:34:58.813Z,20.20
2018-05-16T11:37:26.293Z,20.20
2018-05-16T11:39:53.810Z,20.20
2018-05-16T11:42:21.310Z,20.10
2018-05-16T11:44:48.775Z,20.10
2018-05-16T11:47:16.273Z,19.90
2018-05-16T11:49:43.756Z,20.00
2018-05-16T11:52:11.264Z,19.80
2018-05-16T11:54:39.514Z,19.60
2018-05-16T11:57:06.994Z,19.60
2018-05-16T11:59:35.268Z,19.60
2018-05-16T12:02:03.527Z,19.60
2018-05-16T12:04:31.025Z,19.60
2018-05-16T12:06:58.503Z,19.70
2018-05-16T12:09:26.010Z,19.70
2018-05-16T12:11:53.524Z,19.70
2018-05-16T12:14:21.027Z,19.60
2018-05-16T12:16:48.529Z,19.60
2018-05-16T12:19:16.032Z,19.70
2018-05-16T12:21:43.511Z,19.80
2018-05-16T12:24:11.789Z,20.00
2018-05-16T12:26:40.042Z,20.00
2018-05-16T12:29:07.634Z,20.00
2018-05-16T12:31:35.054Z,20.20
2018-05-16T12:34:02.536Z,20.60
2018-05-16T12:36:30.873Z,20.90
2018-05-16T12:38:59.069Z,20.70
2018-05-16T12:41:26.573Z,20.70
2018-05-16T12:43:54.054Z,20.80
2018-05-16T12:46:21.560Z,20.70
2018-05-16T12:48:49.165Z,21.00
2018-05-16T12:51:16.645Z,20.80
2018-05-16T12:53:44.146Z,20.80
2018-05-16T12:56:12.385Z,20.80
2018-05-16T12:58:39.881Z,20.70
2018-05-16T13:01:08.127Z,20.80
2018-05-16T13:03:35.628Z,20.80
2018-05-16T13:06:03.877Z,20.80
2018-05-16T13:08:31.379Z,20.80
2018-05-16T13:10:58.861Z,20.60
2018-05-16T13:13:26.360Z,20.70
2018-05-16T13:15:54.608Z,20.50
2018-05-16T13:18:22.096Z,20.50
2018-05-16T13:20:50.346Z,20.40
2018-05-16T13:23:17.845Z,20.30
2018-05-16T13:25:46.089Z,20.20
2018-05-16T13:28:13.705Z,20.20
2018-05-16T13:30:41.196Z,20.20
2018-05-16T13:33:08.677Z,19.90
2018-05-16T13:35:36.254Z,19.90
2018-05-16T13:38:03.677Z,19.90
2018-05-16T13:40:31.191Z,19.80
2018-05-16T13:42:58.666Z,19.90
2018-05-16T13:45:26.172Z,20.10
2018-05-16T13:47:53.647Z,20.50
2018-05-16T13:50:21.157Z,20.80
2018-05-16T13:52:48.630Z,20.90
2018-05-16T13:55:16.129Z,21.00
2018-05-16T13:57:43.636Z,20.80
2018-05-16T14:00:11.122Z,20.70
2018-05-16T14:02:39.394Z,20.80
2018-05-16T14:05:06.873Z,20.80
2018-05-16T14:07:35.150Z,20.60
2018-05-16T14:10:03.413Z,20.30
2018-05-16T14:12:31.662Z,20.20
2018-05-16T14:14:59.165Z,20.10
2018-05-16T14:17:27.403Z,19.60
2018-05-16T14:19:54.904Z,19.60
2018-05-16T14:22:22.404Z,19.60
2018-05-16T14:24:49.883Z,19.70
2018-05-16T14:27:17.387Z,19.60
2018-05-16T14:29:44.862Z,19.40
2018-05-16T14:32:12.337Z,19.30
2018-05-16T14:34:39.837Z,19.20
2018-05-16T14:37:08.077Z,19.60
2018-05-16T14:39:35.579Z,19.50
2018-05-16T14:42:03.829Z,19.90
2018-05-16T14:44:31.334Z,19.90
2018-05-16T14:46:58.818Z,19.90
2018-05-16T14:49:26.774Z,19.90
2018-05-16T14:51:54.249Z,20.00
2018-05-16T14:54:21.753Z,20.10
2018-05-16T14:56:50.001Z,20.10
2018-05-16T14:59:17.477Z,20.00
2018-05-16T15:01:45.774Z,19.90
2018-05-16T15:04:14.053Z,20.10
2018-05-16T15:06:41.531Z,20.10
2018-05-16T15:09:09.007Z,19.90
2018-05-16T15:11:36.509Z,19.60
2018-05-16T15:14:04.750Z,19.50
2018-05-16T15:16:32.254Z,19.50
2018-05-16T15:19:00.497Z,19.20
2018-05-16T15:21:28.007Z,19.20
2018-05-16T15:23:55.490Z,19.20
2018-05-16T15:26:22.999Z,18.90
2018-05-16T15:28:51.244Z,18.70
2018-05-16T15:31:18.751Z,18.70
2018-05-16T15:33:46.266Z,18.70
2018-05-16T15:36:13.741Z,18.70
2018-05-16T15:38:41.990Z,18.60
2018-05-16T15:41:09.497Z,18.60
2018-05-16T15:43:36.980Z,18.40
2018-05-16T15:46:04.487Z,18.30
2018-05-16T15:48:32.005Z,18.40
2018-05-16T15:50:59.483Z,18.70
2018-05-16T15:53:26.962Z,18.80
2018-05-16T15:55:54.463Z,18.80
2018-05-16T15:58:21.938Z,18.90
2018-05-16T16:00:49.537Z,18.80
2018-05-16T16:03:17.013Z,18.70
2018-05-16T16:05:45.260Z,18.30
2018-05-16T16:08:12.831Z,18.30
2018-05-16T16:10:40.256Z,18.20
2018-05-16T16:13:07.757Z,18.20
2018-05-16T16:15:36.121Z,18.30
2018-05-16T16:18:03.625Z,18.20
2018-05-16T16:20:31.102Z,18.30
2018-05-16T16:22:58.602Z,18.30
2018-05-16T16:25:26.074Z,18.30
2018-05-16T16:27:54.415Z,18.20
2018-05-16T16:30:21.897Z,18.20
2018-05-16T16:32:49.381Z,18.10
2018-05-16T16:35:17.648Z,18.00
2018-05-16T16:37:45.888Z,18.00
2018-05-16T16:40:13.393Z,18.00
2018-05-16T16:42:40.881Z,17.90
2018-05-16T16:45:08.381Z,17.70
2018-05-16T16:47:35.857Z,17.60
2018-05-16T16:50:04.136Z,17.50
2018-05-16T16:52:32.382Z,17.40
2018-05-16T16:54:59.900Z,17.40
2018-05-16T16:57:27.382Z,17.30
2018-05-16T16:59:54.954Z,17.30
2018-05-16T17:02:23.154Z,17.30
2018-05-16T17:04:51.400Z,17.30
2018-05-16T17:07:18.904Z,17.30
2018-05-16T17:09:47.141Z,17.10
2018-05-16T17:12:14.760Z,17.10
2018-05-16T17:14:42.244Z,17.00
2018-05-16T17:17:09.754Z,16.90
2018-05-16T17:19:37.997Z,16.90
2018-05-16T17:22:05.470Z,16.90
2018-05-16T17:24:33.745Z,16.80
2018-05-16T17:27:01.255Z,16.80
2018-05-16T17:29:28.759Z,16.70
2018-05-16T17:31:56.248Z,16.70
2018-05-16T17:34:23.761Z,16.70
2018-05-16T17:36:51.236Z,16.50
2018-05-16T17:39:18.747Z,16.50
2018-05-16T17:41:46.225Z,16.40
2018-05-16T17:44:13.740Z,16.40
2018-05-16T17:46:41.241Z,16.40
2018-05-16T17:49:08.725Z,16.50
2018-05-16T17:51:36.237Z,16.30
2018-05-16T17:54:03.721Z,16.30
2018-05-16T17:56:31.241Z,16.40
2018-05-16T17:58:58.761Z,16.50
2018-05-16T18:01:26.264Z,16.50
2018-05-16T18:03:53.790Z,16.50
2018-05-16T18:06:22.063Z,16.30
2018-05-16T18:08:49.594Z,16.20
2018-05-16T18:11:17.096Z,16.20
2018-05-16T18:13:58.157Z,16.30
2018-05-16T18:16:38.323Z,16.40
2018-05-16T18:19:06.598Z,16.40
2018-05-16T18:21:34.864Z,16.30
2018-05-16T18:24:02.359Z,16.30
2018-05-16T18:26:29.861Z,16.40
2018-05-16T18:28:57.407Z,16.40
2018-05-16T18:31:24.884Z,16.40
2018-05-16T18:33:52.413Z,16.50
2018-05-16T18:36:19.888Z,16.60
2018-05-16T18:38:47.372Z,16.50
2018-05-16T18:41:14.883Z,16.50
2018-05-16T18:43:42.361Z,16.60
2018-05-16T18:46:09.883Z,16.60
2018-05-16T18:48:37.373Z,16.60
2018-05-16T18:51:04.877Z,16.50
2018-05-16T18:53:33.155Z,16.50
2018-05-16T18:56:01.536Z,16.40
2018-05-16T18:58:28.892Z,16.40
2018-05-16T19:00:57.155Z,16.20
2018-05-16T19:03:25.405Z,16.20
2018-05-16T19:05:52.915Z,16.20
2018-05-16T19:08:20.396Z,16.10
2018-05-16T19:10:47.901Z,16.10
2018-05-16T19:13:15.388Z,16.00
2018-05-16T19:15:42.899Z,15.90
2018-05-16T19:18:10.379Z,15.90
2018-05-16T19:20:37.881Z,15.80
2018-05-16T19:23:05.360Z,15.80
2018-05-16T19:25:32.888Z,15.70
2018-05-16T19:28:00.365Z,15.60
2018-05-16T19:30:27.866Z,15.60
2018-05-16T19:32:55.340Z,15.50
2018-05-16T19:35:23.601Z,15.30
2018-05-16T19:37:51.086Z,15.30
2018-05-16T19:40:18.586Z,15.20
2018-05-16T19:42:46.061Z,15.20
2018-05-16T19:45:13.561Z,15.10
2018-05-16T19:47:41.138Z,15.10
2018-05-16T19:50:08.729Z,15.10
2018-05-16T19:52:36.209Z,15.10
2018-05-16T19:55:03.708Z,15.10
2018-05-16T19:57:31.196Z,15.00
2018-05-16T19:59:58.725Z,15.00
2018-05-16T20:02:26.218Z,15.00
2018-05-16T20:04:53.688Z,15.00
2018-05-16T20:07:21.196Z,14.90
2018-05-16T20:09:48.674Z,14.90
2018-05-16T20:12:16.175Z,14.90
2018-05-16T20:14:43.744Z,14.90
2018-05-16T20:17:11.167Z,14.90
2018-05-16T20:19:38.644Z,14.90
2018-05-16T20:22:06.142Z,15.00
2018-05-16T20:24:33.612Z,15.00
2018-05-16T20:27:01.110Z,15.20
2018-05-16T20:29:28.677Z,15.20
2018-05-16T20:31:56.877Z,15.20
2018-05-16T20:34:25.152Z,15.20
2018-05-16T20:36:53.403Z,15.10
2018-05-16T20:39:20.908Z,15.10
2018-05-16T20:41:48.393Z,15.10
2018-05-16T20:44:15.896Z,15.10
2018-05-16T20:46:44.146Z,15.10
2018-05-16T20:49:11.657Z,15.10
2018-05-16T20:51:39.134Z,15.00
2018-05-16T20:54:06.632Z,15.00
2018-05-16T20:56:34.106Z,15.10
2018-05-16T20:59:02.380Z,15.10
2018-05-16T21:01:29.869Z,15.00
2018-05-16T21:03:57.381Z,15.00
2018-05-16T21:06:24.860Z,15.00
2018-05-16T21:08:53.107Z,15.00
2018-05-16T21:11:20.609Z,14.90
2018-05-16T21:13:48.636Z,14.90
2018-05-16T21:16:16.139Z,14.90
2018-05-16T21:18:44.405Z,14.80
2018-05-16T21:21:12.652Z,14.60
2018-05-16T21:23:40.152Z,14.60
2018-05-16T21:26:07.637Z,14.60
2018-05-16T21:28:35.134Z,14.40
2018-05-16T21:31:02.616Z,14.50
2018-05-16T21:33:30.912Z,14.30
2018-05-16T21:35:58.484Z,14.30
2018-05-16T21:38:26.605Z,14.40
2018-05-16T21:40:54.267Z,14.40
2018-05-16T21:43:22.652Z,14.20
2018-05-16T21:45:50.181Z,14.10
2018-05-16T21:48:17.689Z,14.00
2018-05-16T21:50:45.934Z,14.00
2018-05-16T21:53:13.423Z,14.00
2018-05-16T21:55:41.689Z,14.00
2018-05-16T21:58:09.943Z,13.90
2018-05-16T22:00:37.448Z,13.90
2018-05-16T22:03:04.928Z,14.00
2018-05-16T22:05:32.432Z,14.00
2018-05-16T22:08:00.690Z,13.80
2018-05-16T22:10:28.197Z,13.80
2018-05-16T22:12:55.695Z,13.70
2018-05-16T22:15:23.201Z,13.70
2018-05-16T22:17:51.440Z,13.70
2018-05-16T22:20:18.945Z,13.70
2018-05-16T22:22:46.476Z,13.70
2018-05-16T22:25:13.997Z,13.60
2018-05-16T22:27:41.477Z,13.60
2018-05-16T22:30:08.465Z,13.50
2018-05-16T22:32:42.317Z,13.50
2018-05-16T22:35:15.549Z,13.50
2018-05-16T22:37:49.611Z,13.50
2018-05-16T22:40:22.764Z,13.50
2018-05-16T22:42:50.558Z,13.60
2018-05-16T22:45:33.759Z,13.60
2018-05-16T22:48:02.025Z,13.60
2018-05-16T22:50:30.268Z,13.60
2018-05-16T22:52:57.781Z,13.60
2018-05-16T22:55:25.262Z,13.50
2018-05-16T22:57:52.743Z,13.50
2018-05-16T23:00:22.189Z,13.40
2018-05-16T23:02:50.425Z,13.20
2018-05-16T23:05:17.930Z,13.10
2018-05-16T23:07:45.416Z,13.20
2018-05-16T23:10:13.138Z,13.10
2018-05-16T23:12:41.376Z,13.20
2018-05-16T23:15:08.886Z,13.20
2018-05-16T23:17:36.369Z,13.20
2018-05-16T23:20:03.874Z,13.10
2018-05-16T23:22:31.350Z,13.00
2018-05-16T23:24:59.628Z,13.00
2018-05-16T23:27:27.895Z,13.00
2018-05-16T23:29:55.362Z,13.00
2018-05-16T23:32:23.634Z,13.00
2018-05-16T23:34:51.872Z,12.90
2018-05-16T23:37:19.372Z,12.90
2018-05-16T23:39:47.628Z,12.70
2018-05-16T23:42:15.138Z,12.70
2018-05-16T23:44:42.626Z,12.60
2018-05-16T23:47:10.156Z,12.60
2018-05-16T23:49:37.641Z,12.60
2018-05-16T23:52:05.131Z,12.70
2018-05-16T23:54:33.397Z,12.50
2018-05-16T23:57:00.868Z,12.50
2018-05-16T23:59:29.139Z,12.50
